Terminal Aerodrome Forecast
Issued by NWS Springfield, MO

Home | Current Version | Previous Version | Text Only | Print | Product List | Glossary On
Versions: 1 2 3 4 5 6 7 8 9 10 11 12 13
000
FTUS43 KSGF 271720
TAFSGF
TAF
KSGF 271720Z 2718/2818 18009KT P6SM VCTS SCT015 BKN025CB
     FM272200 18014KT P6SM VCTS BKN040CB
      TEMPO 2722/2802 VRB25G35KT 2SM +TSRA BR OVC025CB
     FM280900 30006KT 5SM BR BKN015
     FM281200 32006KT P6SM BKN008
     FM281700 31007KT P6SM BKN010=

USA.gov is the U.S. government's official web portal to all federal, state and local government web resources and services.